createdAt,value
2019-02-23T00:00:07.054Z,10.93
2019-02-23T00:02:37.796Z,13.10
2019-02-23T00:05:08.176Z,11.77
2019-02-23T00:07:38.978Z,10.87
2019-02-23T00:10:09.435Z,11.23
2019-02-23T00:12:40.049Z,11.07
2019-02-23T00:15:10.801Z,9.17
2019-02-23T00:17:41.487Z,12.23
2019-02-23T00:20:12.145Z,10.23
2019-02-23T00:22:42.837Z,12.97
2019-02-23T00:25:13.234Z,13.63
2019-02-23T00:27:43.875Z,10.17
2019-02-23T00:30:14.555Z,10.37
2019-02-23T00:32:45.264Z,13.67
2019-02-23T00:35:15.893Z,12.67
2019-02-23T00:37:46.569Z,13.27
2019-02-23T00:40:16.526Z,11.50
2019-02-23T00:42:47.209Z,12.83
2019-02-23T00:45:17.528Z,11.50
2019-02-23T00:47:48.287Z,13.83
2019-02-23T00:50:18.937Z,13.87
2019-02-23T00:52:49.661Z,12.17
2019-02-23T00:55:20.401Z,13.20
2019-02-23T00:57:50.775Z,15.50
2019-02-23T01:00:21.422Z,18.37
2019-02-23T01:02:51.977Z,17.67
2019-02-23T01:05:22.327Z,16.17
2019-02-23T01:07:52.450Z,13.67
2019-02-23T01:10:22.741Z,14.90
2019-02-23T01:12:53.191Z,15.27
2019-02-23T01:15:24.021Z,12.33
2019-02-23T01:18:13.342Z,13.60
2019-02-23T01:20:43.929Z,12.30
2019-02-23T01:23:13.872Z,18.00
2019-02-23T01:25:44.896Z,17.37
2019-02-23T01:28:15.176Z,18.57
2019-02-23T01:30:45.451Z,15.23
2019-02-23T01:33:16.121Z,15.10
2019-02-23T01:35:46.145Z,14.47
2019-02-23T01:38:16.420Z,16.27
2019-02-23T01:40:47.169Z,13.80
2019-02-23T01:43:17.535Z,14.40
2019-02-23T01:45:47.922Z,14.80
2019-02-23T01:48:18.627Z,13.97
2019-02-23T01:50:49.225Z,13.20
2019-02-23T01:53:19.893Z,11.83
2019-02-23T01:55:50.550Z,14.33
2019-02-23T01:58:21.171Z,14.90
2019-02-23T02:00:51.559Z,17.07
2019-02-23T02:03:21.991Z,14.67
2019-02-23T02:05:52.659Z,13.67
2019-02-23T02:08:23.154Z,14.90
2019-02-23T02:10:53.877Z,16.07
2019-02-23T02:13:24.487Z,15.67
2019-02-23T02:15:54.445Z,14.97
2019-02-23T02:18:24.511Z,18.07
2019-02-23T02:20:54.638Z,14.20
2019-02-23T02:23:25.361Z,14.27
2019-02-23T02:25:55.965Z,16.30
2019-02-23T02:28:26.329Z,14.73
2019-02-23T02:30:56.659Z,15.60
2019-02-23T02:33:27.362Z,17.00
2019-02-23T02:35:57.642Z,16.57
2019-02-23T02:38:28.359Z,17.70
2019-02-23T02:40:58.720Z,17.87
2019-02-23T02:43:29.392Z,17.47
2019-02-23T02:46:00.039Z,16.77
2019-02-23T02:48:30.787Z,16.73
2019-02-23T02:51:01.443Z,15.97
2019-02-23T02:53:32.059Z,15.83
2019-02-23T02:56:02.346Z,14.97
2019-02-23T02:58:33.018Z,16.03
2019-02-23T03:01:03.266Z,15.93
2019-02-23T03:03:33.863Z,16.53
2019-02-23T03:06:04.599Z,15.10
2019-02-23T03:08:35.325Z,17.57
2019-02-23T03:11:05.595Z,20.07
2019-02-23T03:13:35.925Z,17.43
2019-02-23T03:16:06.236Z,19.47
2019-02-23T03:18:36.501Z,21.50
2019-02-23T03:21:06.730Z,22.60
2019-02-23T03:23:37.148Z,21.00
2019-02-23T03:26:07.685Z,22.70
2019-02-23T03:28:38.213Z,23.87
2019-02-23T03:31:08.796Z,20.80
2019-02-23T03:33:39.137Z,19.83
2019-02-23T03:36:09.457Z,23.60
2019-02-23T03:38:39.837Z,22.43
2019-02-23T03:41:10.426Z,21.30
2019-02-23T03:43:41.059Z,20.70
2019-02-23T03:46:11.757Z,19.60
2019-02-23T03:48:42.479Z,21.77
2019-02-23T03:51:12.722Z,22.67
2019-02-23T03:53:43.448Z,21.63
2019-02-23T03:56:14.015Z,21.50
2019-02-23T03:58:44.669Z,20.83
2019-02-23T04:01:15.321Z,20.07
2019-02-23T04:03:46.010Z,18.73
2019-02-23T04:06:16.413Z,17.70
2019-02-23T04:08:47.188Z,21.47
2019-02-23T04:11:17.891Z,19.10
2019-02-23T04:13:48.117Z,17.70
2019-02-23T04:16:18.785Z,16.93
2019-02-23T04:18:49.179Z,16.77
2019-02-23T04:21:19.393Z,16.77
2019-02-23T04:23:50.067Z,19.40
2019-02-23T04:26:20.323Z,18.67
2019-02-23T04:28:50.555Z,18.50
2019-02-23T04:31:21.226Z,18.77
2019-02-23T04:33:51.904Z,17.00
2019-02-23T04:36:22.623Z,18.93
2019-02-23T04:38:53.375Z,19.03
2019-02-23T04:41:23.687Z,16.00
2019-02-23T04:43:54.499Z,17.30
2019-02-23T04:46:24.746Z,16.10
2019-02-23T04:48:54.648Z,20.90
2019-02-23T04:51:25.375Z,20.90
2019-02-23T04:53:55.620Z,18.93
2019-02-23T04:56:26.341Z,19.63
2019-02-23T04:58:56.847Z,18.27
2019-02-23T05:01:27.437Z,16.13
2019-02-23T05:03:57.727Z,17.67
2019-02-23T05:06:28.361Z,19.97
2019-02-23T05:08:58.693Z,16.43
2019-02-23T05:11:28.916Z,20.37
2019-02-23T05:13:59.553Z,18.67
2019-02-23T05:16:29.880Z,17.67
2019-02-23T05:19:00.499Z,18.73
2019-02-23T05:21:31.088Z,16.80
2019-02-23T05:24:01.741Z,13.20
2019-02-23T05:26:32.390Z,14.67
2019-02-23T05:29:03.093Z,14.87
2019-02-23T05:31:33.727Z,15.43
2019-02-23T05:34:03.971Z,18.37
2019-02-23T05:36:33.931Z,14.83
2019-02-23T05:39:05.135Z,15.60
2019-02-23T05:41:35.826Z,16.60
2019-02-23T05:44:06.637Z,17.27
2019-02-23T05:46:36.905Z,19.70
2019-02-23T05:49:07.578Z,18.23
2019-02-23T05:51:39.139Z,17.77
2019-02-23T05:54:09.993Z,17.53
2019-02-23T05:56:39.917Z,17.13
2019-02-23T05:59:10.504Z,16.43
2019-02-23T06:01:41.340Z,14.83
2019-02-23T06:04:12.058Z,15.97
2019-02-23T06:06:42.416Z,19.20
2019-02-23T06:09:31.937Z,17.50
2019-02-23T06:12:02.743Z,19.30
2019-02-23T06:14:33.021Z,15.63
2019-02-23T06:17:04.232Z,21.57
2019-02-23T06:19:34.639Z,19.67
2019-02-23T06:22:05.516Z,18.50
2019-02-23T06:24:36.132Z,19.10
2019-02-23T06:27:06.723Z,19.47
2019-02-23T06:29:37.096Z,14.93
2019-02-23T06:32:07.585Z,20.17
2019-02-23T06:34:39.172Z,18.20
2019-02-23T06:37:09.777Z,17.50
2019-02-23T06:39:40.407Z,18.70
2019-02-23T06:42:10.997Z,17.13
2019-02-23T06:44:41.503Z,18.83
2019-02-23T06:47:12.004Z,18.83
2019-02-23T06:49:42.264Z,19.97
2019-02-23T06:52:12.189Z,19.50
2019-02-23T06:54:42.782Z,19.20
2019-02-23T06:57:32.182Z,18.50
2019-02-23T07:00:02.547Z,19.07
2019-02-23T07:02:33.189Z,23.73
2019-02-23T07:05:03.791Z,26.37
2019-02-23T07:07:34.449Z,54.97
2019-02-23T07:10:04.738Z,25.27
2019-02-23T07:12:35.272Z,19.87
2019-02-23T07:15:05.522Z,20.47
2019-02-23T07:17:36.067Z,26.00
2019-02-23T07:20:06.039Z,20.20
2019-02-23T07:22:36.630Z,21.43
2019-02-23T07:25:06.666Z,18.03
2019-02-23T07:27:36.607Z,23.20
2019-02-23T07:30:07.561Z,17.77
2019-02-23T07:32:37.781Z,20.00
2019-02-23T07:35:08.163Z,21.67
2019-02-23T07:37:38.531Z,22.33
2019-02-23T07:40:09.105Z,20.50
2019-02-23T07:42:38.983Z,19.83
2019-02-23T07:45:09.721Z,19.77
2019-02-23T07:47:43.844Z,20.17
2019-02-23T07:50:14.354Z,18.97
2019-02-23T07:52:44.870Z,19.60
2019-02-23T07:55:15.346Z,18.23
2019-02-23T07:57:45.571Z,20.23
2019-02-23T08:00:15.858Z,21.37
2019-02-23T08:02:49.186Z,20.53
2019-02-23T08:05:19.508Z,16.27
2019-02-23T08:07:49.952Z,20.93
2019-02-23T08:10:25.246Z,19.97
2019-02-23T08:12:55.937Z,20.83
2019-02-23T08:15:26.492Z,16.43
2019-02-23T08:17:57.158Z,18.07
2019-02-23T08:20:27.440Z,17.73
2019-02-23T08:22:58.127Z,16.47
2019-02-23T08:25:28.170Z,13.90
2019-02-23T08:27:58.707Z,17.93
2019-02-23T08:30:28.601Z,15.67
2019-02-23T08:32:59.166Z,16.13
2019-02-23T08:35:29.297Z,15.67
2019-02-23T08:37:59.493Z,16.13
2019-02-23T08:40:29.741Z,14.00
2019-02-23T08:42:59.985Z,16.07
2019-02-23T08:45:30.526Z,16.17
2019-02-23T08:48:00.480Z,16.87
2019-02-23T08:50:31.058Z,14.03
2019-02-23T08:53:01.674Z,13.07
2019-02-23T08:55:31.885Z,15.73
2019-02-23T08:58:02.117Z,12.57
2019-02-23T09:00:32.575Z,13.33
2019-02-23T09:03:02.767Z,13.43
2019-02-23T09:05:34.512Z,16.83
2019-02-23T09:08:07.022Z,12.57
2019-02-23T09:10:38.858Z,12.53
2019-02-23T09:13:10.212Z,11.00
2019-02-23T09:15:40.142Z,11.30
2019-02-23T09:18:10.671Z,9.90
2019-02-23T09:20:40.672Z,12.67
2019-02-23T09:23:11.312Z,9.80
2019-02-23T09:25:41.911Z,12.07
2019-02-23T09:28:15.408Z,13.77
2019-02-23T09:30:46.004Z,11.90
2019-02-23T09:33:16.337Z,9.70
2019-02-23T09:35:46.943Z,11.90
2019-02-23T09:38:17.366Z,9.63
2019-02-23T09:40:48.182Z,12.00
2019-02-23T09:43:18.860Z,13.23
2019-02-23T09:45:49.424Z,11.97
2019-02-23T09:48:20.150Z,12.83
2019-02-23T09:50:52.596Z,11.40
2019-02-23T09:53:42.060Z,11.03
2019-02-23T09:56:12.753Z,10.33
2019-02-23T09:58:43.135Z,11.87
2019-02-23T10:01:16.931Z,12.27
2019-02-23T10:03:47.542Z,9.00
2019-02-23T10:06:17.926Z,9.53
2019-02-23T10:08:48.571Z,8.77
2019-02-23T10:11:18.792Z,8.53
2019-02-23T10:13:49.386Z,8.00
2019-02-23T10:16:19.586Z,8.00
2019-02-23T10:18:50.140Z,8.77
2019-02-23T10:21:20.816Z,8.50
2019-02-23T10:23:51.328Z,7.43
2019-02-23T10:26:21.487Z,9.23
2019-02-23T10:28:51.830Z,8.60
2019-02-23T10:31:21.678Z,9.13
2019-02-23T10:33:52.343Z,8.83
2019-02-23T10:36:22.984Z,7.80
2019-02-23T10:38:52.969Z,8.97
2019-02-23T10:41:23.182Z,8.50
2019-02-23T10:43:53.194Z,7.27
2019-02-23T10:46:23.090Z,9.30
2019-02-23T10:48:53.766Z,12.27
2019-02-23T10:51:24.326Z,9.70
2019-02-23T10:53:54.499Z,10.93
2019-02-23T10:56:24.828Z,8.40
2019-02-23T10:58:55.378Z,9.93
2019-02-23T11:01:26.468Z,10.33
2019-02-23T11:03:56.470Z,6.73
2019-02-23T11:06:26.688Z,6.47
2019-02-23T11:08:57.225Z,8.87
2019-02-23T11:11:27.507Z,7.63
2019-02-23T11:13:57.822Z,7.70
2019-02-23T11:16:28.238Z,8.60
2019-02-23T11:18:59.018Z,7.97
2019-02-23T11:21:29.148Z,6.90
2019-02-23T11:24:00.378Z,6.67
2019-02-23T11:26:31.068Z,6.70
2019-02-23T11:29:01.444Z,8.63
2019-02-23T11:31:31.364Z,7.50
2019-02-23T11:34:01.947Z,6.27
2019-02-23T11:36:32.600Z,5.93
2019-02-23T11:39:03.474Z,5.77
2019-02-23T11:41:33.563Z,5.87
2019-02-23T11:44:03.901Z,6.70
2019-02-23T11:46:34.307Z,6.43
2019-02-23T11:49:08.250Z,6.27
2019-02-23T11:51:38.124Z,6.57
2019-02-23T11:54:08.369Z,5.03
2019-02-23T11:56:38.927Z,5.07
2019-02-23T11:59:09.400Z,5.70
2019-02-23T12:01:39.578Z,5.70
2019-02-23T12:04:10.154Z,4.53
2019-02-23T12:06:40.571Z,5.43
2019-02-23T12:09:11.070Z,4.83
2019-02-23T12:11:41.539Z,4.40
2019-02-23T12:14:12.068Z,6.30
2019-02-23T12:16:42.334Z,6.93
2019-02-23T12:19:12.606Z,4.97
2019-02-23T12:21:42.781Z,4.50
2019-02-23T12:24:13.281Z,5.73
2019-02-23T12:26:43.492Z,3.57
2019-02-23T12:29:14.046Z,4.70
2019-02-23T12:31:44.679Z,6.70
2019-02-23T12:34:14.594Z,6.23
2019-02-23T12:36:44.865Z,4.47
2019-02-23T12:39:14.830Z,4.33
2019-02-23T12:41:45.454Z,30.70
2019-02-23T12:44:15.918Z,10.50
2019-02-23T12:46:46.498Z,3.83
2019-02-23T12:49:16.721Z,5.33
2019-02-23T12:51:47.884Z,4.10
2019-02-23T12:54:18.547Z,5.10
2019-02-23T12:56:49.156Z,5.33
2019-02-23T12:59:19.320Z,4.77
2019-02-23T13:01:50.012Z,4.23
2019-02-23T13:04:20.616Z,3.80
2019-02-23T13:06:51.334Z,4.47
2019-02-23T13:09:30.286Z,3.60
2019-02-23T13:12:59.460Z,4.63
2019-02-23T13:15:42.392Z,4.13
2019-02-23T13:19:01.616Z,4.30
2019-02-23T13:22:17.403Z,6.57
2019-02-23T13:25:13.452Z,2.97
2019-02-23T13:28:30.192Z,5.67
2019-02-23T13:31:21.671Z,4.73
2019-02-23T13:34:44.816Z,2.67
2019-02-23T13:37:33.410Z,2.87
2019-02-23T13:40:40.134Z,3.57
2019-02-23T13:43:28.874Z,4.10
2019-02-23T13:46:24.655Z,4.33
2019-02-23T13:49:31.995Z,4.23
2019-02-23T13:52:36.766Z,4.23
2019-02-23T13:55:46.796Z,3.57
2019-02-23T13:58:47.770Z,3.63
2019-02-23T14:02:17.395Z,3.10
2019-02-23T14:05:21.739Z,4.83
2019-02-23T14:08:23.239Z,4.53
2019-02-23T14:11:34.110Z,4.43
2019-02-23T14:14:36.036Z,5.07
2019-02-23T14:17:59.078Z,3.13
2019-02-23T14:20:58.158Z,3.43
2019-02-23T14:24:13.712Z,2.67
2019-02-23T14:27:20.172Z,4.50
2019-02-23T14:30:39.501Z,5.57
2019-02-23T14:33:44.244Z,3.27
2019-02-23T14:36:20.302Z,3.43
2019-02-23T14:39:46.385Z,2.93
2019-02-23T14:42:32.794Z,2.60
2019-02-23T14:45:37.341Z,3.20
2019-02-23T14:48:45.374Z,2.67
2019-02-23T14:52:08.304Z,3.03
2019-02-23T14:55:16.994Z,2.90
2019-02-23T14:58:49.086Z,2.67
2019-02-23T15:02:20.904Z,5.50
2019-02-23T15:05:25.070Z,3.80
2019-02-23T15:08:20.281Z,3.87
2019-02-23T15:11:24.593Z,3.67
2019-02-23T15:14:24.672Z,5.03
2019-02-23T15:17:31.329Z,2.57
2019-02-23T15:20:48.721Z,3.20
2019-02-23T15:23:39.836Z,2.93
2019-02-23T15:26:53.442Z,1.90
2019-02-23T15:29:39.570Z,3.17
2019-02-23T15:32:51.294Z,3.17
2019-02-23T15:36:11.222Z,2.73
2019-02-23T15:39:34.532Z,6.40
2019-02-23T15:43:03.048Z,4.43
2019-02-23T15:46:17.316Z,3.37
2019-02-23T15:49:24.468Z,4.03
2019-02-23T15:51:55.201Z,4.17
2019-02-23T15:54:25.776Z,3.20
2019-02-23T15:56:55.404Z,5.03
2019-02-23T15:59:25.359Z,4.60
2019-02-23T16:01:55.666Z,3.90
2019-02-23T16:04:26.219Z,2.77
2019-02-23T16:06:56.634Z,2.50
2019-02-23T16:09:26.956Z,4.07
2019-02-23T16:11:57.183Z,4.80
2019-02-23T16:14:27.840Z,10.57
2019-02-23T16:16:58.463Z,7.60
2019-02-23T16:19:29.088Z,8.63
2019-02-23T16:21:59.945Z,7.70
2019-02-23T16:24:30.520Z,3.80
2019-02-23T16:27:00.841Z,3.43
2019-02-23T16:29:31.522Z,6.53
2019-02-23T16:32:01.699Z,4.13
2019-02-23T16:34:32.282Z,7.40
2019-02-23T16:37:02.175Z,4.07
2019-02-23T16:39:32.372Z,3.30
2019-02-23T16:42:02.739Z,3.80
2019-02-23T16:44:33.121Z,6.30
2019-02-23T16:47:03.673Z,5.30
2019-02-23T16:49:34.273Z,6.17
2019-02-23T16:52:04.486Z,4.60
2019-02-23T16:54:34.663Z,4.23
2019-02-23T16:57:05.220Z,7.37
2019-02-23T16:59:35.696Z,5.10
2019-02-23T17:02:06.088Z,6.57
2019-02-23T17:04:36.558Z,8.77
2019-02-23T17:07:07.104Z,8.27
2019-02-23T17:09:36.957Z,8.77
2019-02-23T17:12:07.612Z,8.93
2019-02-23T17:14:37.621Z,8.57
2019-02-23T17:17:08.135Z,8.60
2019-02-23T17:19:38.643Z,7.13
2019-02-23T17:22:09.330Z,10.17
2019-02-23T17:24:39.606Z,10.67
2019-02-23T17:27:09.558Z,8.30
2019-02-23T17:29:40.049Z,8.97
2019-02-23T17:32:10.298Z,7.03
2019-02-23T17:34:40.970Z,6.00
2019-02-23T17:37:12.029Z,5.67
2019-02-23T17:39:42.277Z,5.13
2019-02-23T17:42:12.892Z,3.53
2019-02-23T17:44:43.497Z,7.23
2019-02-23T17:47:13.814Z,6.93
2019-02-23T17:49:44.070Z,10.30
2019-02-23T17:52:15.304Z,13.17
2019-02-23T17:54:46.014Z,10.70
2019-02-23T17:57:15.944Z,9.83
2019-02-23T17:59:46.206Z,6.83
2019-02-23T18:02:16.485Z,6.37
2019-02-23T18:04:47.092Z,7.67
2019-02-23T18:07:17.386Z,12.13
2019-02-23T18:09:47.955Z,10.10
2019-02-23T18:12:18.566Z,8.83
2019-02-23T18:14:48.536Z,7.77
2019-02-23T18:17:18.764Z,8.93
2019-02-23T18:19:49.021Z,7.73
2019-02-23T18:22:19.472Z,8.77
2019-02-23T18:24:49.997Z,9.30
2019-02-23T18:27:20.286Z,7.30
2019-02-23T18:29:50.484Z,8.37
2019-02-23T18:32:20.694Z,7.50
2019-02-23T18:34:51.073Z,9.47
2019-02-23T18:37:21.327Z,7.17
2019-02-23T18:39:52.342Z,11.20
2019-02-23T18:42:23.010Z,6.47
2019-02-23T18:44:53.502Z,9.43
2019-02-23T18:47:23.454Z,12.77
2019-02-23T18:49:53.702Z,7.40
2019-02-23T18:52:24.271Z,6.80
2019-02-23T18:54:54.875Z,5.57
2019-02-23T18:57:35.916Z,5.53
2019-02-23T19:00:08.742Z,4.37
2019-02-23T19:02:39.522Z,5.53
2019-02-23T19:05:11.107Z,6.57
2019-02-23T19:07:41.642Z,6.90
2019-02-23T19:10:13.071Z,7.80
2019-02-23T19:12:43.380Z,7.67
2019-02-23T19:15:13.942Z,32.70
2019-02-23T19:17:44.418Z,42.47
2019-02-23T19:20:15.061Z,44.30
2019-02-23T19:22:45.646Z,36.70
2019-02-23T19:25:15.913Z,23.47
2019-02-23T19:27:46.453Z,22.13
2019-02-23T19:30:17.080Z,19.10
2019-02-23T19:32:47.512Z,18.13
2019-02-23T19:35:17.529Z,14.83
2019-02-23T19:37:48.192Z,18.93
2019-02-23T19:40:18.656Z,24.00
2019-02-23T19:42:48.595Z,23.40
2019-02-23T19:45:19.256Z,27.43
2019-02-23T19:47:49.753Z,21.27
2019-02-23T19:50:25.946Z,19.23
2019-02-23T19:52:56.253Z,11.50
2019-02-23T19:55:26.973Z,7.90
2019-02-23T19:57:57.344Z,5.53
2019-02-23T20:00:27.595Z,7.37
2019-02-23T20:02:58.068Z,10.80
2019-02-23T20:05:28.720Z,13.67
2019-02-23T20:07:59.316Z,12.50
2019-02-23T20:10:29.607Z,15.10
2019-02-23T20:13:00.188Z,16.27
2019-02-23T20:15:30.124Z,17.33
2019-02-23T20:18:00.400Z,14.77
2019-02-23T20:20:30.585Z,13.30
2019-02-23T20:23:01.082Z,10.73
2019-02-23T20:25:31.451Z,10.37
2019-02-23T20:28:01.748Z,8.87
2019-02-23T20:30:32.420Z,9.67
2019-02-23T20:33:03.102Z,5.60
2019-02-23T20:35:33.369Z,7.03
2019-02-23T20:38:03.994Z,11.10
2019-02-23T20:40:34.233Z,9.57
2019-02-23T20:43:04.469Z,10.97
2019-02-23T20:45:35.033Z,6.73
2019-02-23T20:48:05.666Z,6.33
2019-02-23T20:50:35.942Z,6.63
2019-02-23T20:53:06.787Z,6.10
2019-02-23T20:55:37.449Z,6.87
2019-02-23T20:58:07.722Z,5.33
2019-02-23T21:00:38.433Z,6.10
2019-02-23T21:03:09.200Z,7.93
2019-02-23T21:05:39.755Z,5.67
2019-02-23T21:08:10.410Z,5.63
2019-02-23T21:10:40.810Z,7.00
2019-02-23T21:13:11.456Z,7.60
2019-02-23T21:15:42.071Z,13.90
2019-02-23T21:18:12.580Z,11.40
2019-02-23T21:20:42.500Z,7.90
2019-02-23T21:23:13.087Z,8.37
2019-02-23T21:25:43.937Z,7.23
2019-02-23T21:28:14.443Z,7.77
2019-02-23T21:30:45.016Z,7.37
2019-02-23T21:33:15.672Z,9.10
2019-02-23T21:35:46.224Z,7.53
2019-02-23T21:38:16.425Z,6.47
2019-02-23T21:40:46.562Z,6.97
2019-02-23T21:43:17.221Z,11.77
2019-02-23T21:45:47.894Z,11.00
2019-02-23T21:48:18.145Z,13.23
2019-02-23T21:50:48.431Z,12.60
2019-02-23T21:53:18.637Z,7.07
2019-02-23T21:55:49.268Z,7.20
2019-02-23T21:58:19.805Z,5.87
2019-02-23T22:00:51.268Z,4.77
2019-02-23T22:03:21.796Z,5.57
2019-02-23T22:05:52.434Z,7.37
2019-02-23T22:08:23.066Z,8.30
2019-02-23T22:10:53.778Z,8.03
2019-02-23T22:13:24.380Z,7.97
2019-02-23T22:15:54.598Z,6.10
2019-02-23T22:18:24.883Z,7.33
2019-02-23T22:20:55.458Z,6.97
2019-02-23T22:23:25.970Z,7.03
2019-02-23T22:25:56.294Z,7.20
2019-02-23T22:28:26.617Z,42.67
2019-02-23T22:30:57.853Z,31.80
2019-02-23T22:33:28.537Z,15.97
2019-02-23T22:35:58.919Z,12.13
2019-02-23T22:38:29.544Z,8.83
2019-02-23T22:41:00.095Z,7.93
2019-02-23T22:43:30.292Z,7.00
2019-02-23T22:46:00.573Z,6.20
2019-02-23T22:48:31.002Z,5.77
2019-02-23T22:51:01.291Z,6.13
2019-02-23T22:53:31.378Z,8.00
2019-02-23T22:56:01.965Z,6.50
2019-02-23T22:58:32.537Z,5.77
2019-02-23T23:01:04.187Z,6.60
2019-02-23T23:03:34.770Z,6.43
2019-02-23T23:06:05.105Z,6.07
2019-02-23T23:08:35.614Z,7.77
2019-02-23T23:11:06.187Z,5.30
2019-02-23T23:13:36.872Z,6.23
2019-02-23T23:16:06.794Z,5.80
2019-02-23T23:18:37.482Z,5.43
2019-02-23T23:21:08.034Z,6.73
2019-02-23T23:23:38.664Z,6.13
2019-02-23T23:26:09.253Z,6.23
2019-02-23T23:28:39.852Z,6.77
2019-02-23T23:31:10.353Z,7.17
2019-02-23T23:33:41.436Z,7.20
2019-02-23T23:36:12.078Z,6.90
2019-02-23T23:38:42.418Z,9.63
2019-02-23T23:41:12.897Z,12.57
2019-02-23T23:43:43.500Z,8.50
2019-02-23T23:46:15.318Z,9.67
2019-02-23T23:48:45.555Z,5.30
2019-02-23T23:51:15.770Z,6.60
2019-02-23T23:53:45.732Z,6.87
2019-02-23T23:56:16.224Z,5.23
2019-02-23T23:58:46.706Z,5.33
